createdAt,value
2023-04-09T00:02:16.217Z,10.35
2023-04-09T00:04:43.145Z,10.37
2023-04-09T00:07:09.926Z,10.42
2023-04-09T00:09:36.656Z,10.38
2023-04-09T00:12:03.597Z,10.33
2023-04-09T00:14:30.515Z,10.33
2023-04-09T00:16:57.168Z,10.29
2023-04-09T00:19:25.338Z,10.16
2023-04-09T00:21:52.738Z,10.24
2023-04-09T00:24:19.482Z,10.21
2023-04-09T00:26:46.550Z,10.18
2023-04-09T00:29:13.134Z,10.26
2023-04-09T00:31:39.682Z,10.29
2023-04-09T00:34:07.140Z,10.29
2023-04-09T00:36:33.860Z,10.33
2023-04-09T00:39:00.408Z,10.35
2023-04-09T00:41:28.553Z,10.21
2023-04-09T00:43:57.245Z,10.28
2023-04-09T00:46:23.898Z,10.08
2023-04-09T00:48:51.470Z,10.28
2023-04-09T00:51:18.218Z,10.21
2023-04-09T00:53:45.088Z,10.13
2023-04-09T00:56:13.565Z,10.21
2023-04-09T00:58:41.502Z,10.15
2023-04-09T01:01:08.165Z,10.19
2023-04-09T01:03:35.722Z,10.13
2023-04-09T01:06:12.462Z,10.25
2023-04-09T01:08:56.810Z,10.10
2023-04-09T01:11:49.563Z,10.16
2023-04-09T01:14:30.534Z,10.21
2023-04-09T01:17:04.538Z,10.21
2023-04-09T01:19:58.322Z,10.19
2023-04-09T01:22:40.372Z,10.13
2023-04-09T01:25:39.360Z,10.10
2023-04-09T01:28:18.920Z,10.17
2023-04-09T01:30:49.710Z,10.19
2023-04-09T01:33:18.406Z,10.22
2023-04-09T01:35:46.825Z,10.19
2023-04-09T01:38:16.583Z,10.19
2023-04-09T01:40:43.689Z,10.13
2023-04-09T01:43:11.147Z,10.15
2023-04-09T01:45:38.390Z,10.17
2023-04-09T01:48:05.555Z,10.01
2023-04-09T01:50:33.497Z,10.12
2023-04-09T01:53:01.673Z,10.11
2023-04-09T01:55:28.262Z,10.10
2023-04-09T01:57:55.424Z,10.12
2023-04-09T02:00:22.153Z,10.09
2023-04-09T02:03:25.031Z,10.10
2023-04-09T02:06:09.268Z,10.09
2023-04-09T02:08:37.769Z,10.12
2023-04-09T02:11:08.675Z,10.10
2023-04-09T02:13:37.531Z,10.13
2023-04-09T02:16:04.791Z,10.11
2023-04-09T02:18:32.706Z,10.16
2023-04-09T02:21:00.327Z,10.12
2023-04-09T02:23:32.351Z,10.15
2023-04-09T02:25:59.183Z,10.17
2023-04-09T02:28:26.406Z,10.15
2023-04-09T02:30:53.098Z,10.03
2023-04-09T02:33:19.647Z,9.99
2023-04-09T02:35:46.303Z,10.06
2023-04-09T02:38:13.927Z,10.06
2023-04-09T02:40:41.423Z,9.95
2023-04-09T02:43:08.591Z,10.03
2023-04-09T02:45:35.285Z,10.02
2023-04-09T02:48:01.960Z,10.10
2023-04-09T02:50:29.545Z,10.05
2023-04-09T02:52:56.082Z,10.01
2023-04-09T02:55:22.781Z,10.01
2023-04-09T02:57:49.423Z,10.05
2023-04-09T03:00:16.168Z,10.07
2023-04-09T03:02:43.000Z,10.04
2023-04-09T03:05:11.427Z,10.03
2023-04-09T03:07:37.891Z,9.96
2023-04-09T03:10:04.768Z,10.01
2023-04-09T03:12:32.534Z,9.91
2023-04-09T03:14:59.006Z,9.81
2023-04-09T03:17:27.305Z,9.84
2023-04-09T03:19:54.369Z,9.74
2023-04-09T03:22:20.973Z,9.82
2023-04-09T03:24:47.473Z,9.84
2023-04-09T03:27:14.104Z,9.93
2023-04-09T03:29:40.927Z,9.89
2023-04-09T03:32:07.444Z,9.93
2023-04-09T03:34:34.361Z,9.84
2023-04-09T03:37:00.872Z,9.82
2023-04-09T03:39:30.798Z,9.80
2023-04-09T03:41:59.442Z,9.92
2023-04-09T03:44:26.062Z,9.97
2023-04-09T03:46:52.818Z,9.89
2023-04-09T03:49:19.575Z,9.83
2023-04-09T03:51:46.045Z,9.70
2023-04-09T03:54:12.618Z,9.89
2023-04-09T03:56:39.070Z,9.88
2023-04-09T03:59:05.604Z,9.77
2023-04-09T04:01:32.068Z,9.81
2023-04-09T04:03:58.656Z,9.73
2023-04-09T04:06:25.652Z,9.83
2023-04-09T04:08:52.806Z,9.81
2023-04-09T04:11:19.443Z,9.87
2023-04-09T04:13:45.937Z,9.85
2023-04-09T04:16:12.400Z,9.77
2023-04-09T04:18:39.016Z,9.86
2023-04-09T04:21:05.592Z,9.84
2023-04-09T04:23:33.854Z,9.77
2023-04-09T04:26:00.300Z,9.74
2023-04-09T04:28:26.859Z,9.56
2023-04-09T04:30:53.501Z,9.37
2023-04-09T04:33:20.060Z,9.53
2023-04-09T04:35:50.971Z,9.69
2023-04-09T04:38:17.672Z,9.67
2023-04-09T04:40:44.173Z,9.71
2023-04-09T04:43:10.833Z,9.75
2023-04-09T04:45:37.349Z,9.79
2023-04-09T04:48:03.954Z,9.70
2023-04-09T04:50:30.484Z,9.75
2023-04-09T04:52:57.318Z,9.80
2023-04-09T04:55:23.887Z,9.68
2023-04-09T04:57:52.297Z,9.76
2023-04-09T05:00:20.502Z,9.74
2023-04-09T05:02:47.153Z,9.79
2023-04-09T05:05:13.838Z,9.73
2023-04-09T05:07:40.464Z,9.68
2023-04-09T05:10:07.825Z,9.50
2023-04-09T05:12:34.569Z,9.66
2023-04-09T05:15:01.009Z,9.52
2023-04-09T05:17:27.441Z,9.62
2023-04-09T05:19:55.453Z,9.51
2023-04-09T05:22:22.034Z,9.51
2023-04-09T05:24:48.492Z,9.54
2023-04-09T05:27:15.609Z,9.54
2023-04-09T05:29:42.118Z,9.65
2023-04-09T05:32:09.545Z,9.59
2023-04-09T05:34:36.294Z,9.59
2023-04-09T05:37:02.804Z,9.66
2023-04-09T05:39:29.473Z,9.70
2023-04-09T05:41:56.466Z,9.48
2023-04-09T05:44:22.882Z,9.75
2023-04-09T05:46:49.361Z,9.75
2023-04-09T05:49:16.300Z,9.85
2023-04-09T05:51:43.327Z,9.83
2023-04-09T05:54:10.108Z,9.86
2023-04-09T05:56:36.833Z,9.73
2023-04-09T05:59:03.293Z,9.56
2023-04-09T06:01:29.780Z,9.53
2023-04-09T06:03:58.467Z,9.59
2023-04-09T06:06:25.469Z,9.59
2023-04-09T06:08:51.973Z,9.49
2023-04-09T06:11:18.529Z,9.34
2023-04-09T06:13:45.209Z,9.37
2023-04-09T06:16:11.681Z,9.32
2023-04-09T06:18:38.184Z,9.25
2023-04-09T06:21:08.999Z,9.31
2023-04-09T06:23:37.518Z,9.44
2023-04-09T06:26:03.964Z,9.35
2023-04-09T06:28:31.552Z,9.58
2023-04-09T06:30:58.975Z,9.63
2023-04-09T06:33:25.697Z,9.60
2023-04-09T06:35:52.250Z,9.60
2023-04-09T06:38:18.939Z,9.51
2023-04-09T06:40:45.571Z,9.39
2023-04-09T06:43:12.037Z,9.56
2023-04-09T06:45:40.917Z,9.66
2023-04-09T06:48:07.786Z,9.65
2023-04-09T06:50:34.334Z,9.85
2023-04-09T06:53:01.027Z,9.98
2023-04-09T06:55:27.500Z,9.75
2023-04-09T06:57:54.025Z,9.85
2023-04-09T07:00:20.719Z,9.87
2023-04-09T07:02:47.417Z,9.95
2023-04-09T07:05:14.120Z,9.96
2023-04-09T07:07:40.651Z,9.94
2023-04-09T07:10:07.772Z,10.19
2023-04-09T07:12:35.359Z,10.30
2023-04-09T07:15:03.993Z,10.56
2023-04-09T07:17:34.562Z,10.79
2023-04-09T07:20:02.616Z,10.99
2023-04-09T07:22:30.703Z,11.13
2023-04-09T07:24:57.324Z,11.39
2023-04-09T07:27:26.536Z,11.03
2023-04-09T07:29:57.249Z,11.48
2023-04-09T07:32:24.896Z,12.01
2023-04-09T07:34:52.791Z,12.25
2023-04-09T07:37:19.585Z,12.08
2023-04-09T07:39:46.633Z,12.36
2023-04-09T07:42:13.588Z,12.54
2023-04-09T07:44:40.916Z,12.11
2023-04-09T07:47:08.289Z,12.15
2023-04-09T07:49:38.518Z,12.52
2023-04-09T07:52:05.852Z,12.52
2023-04-09T07:54:34.757Z,13.05
2023-04-09T07:57:04.406Z,13.18
2023-04-09T07:59:31.744Z,13.35
2023-04-09T08:01:58.816Z,13.53
2023-04-09T08:04:27.422Z,14.01
2023-04-09T08:06:54.100Z,13.39
2023-04-09T08:09:21.365Z,13.34
2023-04-09T08:11:49.071Z,13.13
2023-04-09T08:14:17.043Z,13.86
2023-04-09T08:16:46.167Z,14.16
2023-04-09T08:19:16.468Z,15.22
2023-04-09T08:21:43.880Z,14.72
2023-04-09T08:24:11.789Z,15.89
2023-04-09T08:26:39.652Z,14.74
2023-04-09T08:29:06.547Z,15.64
2023-04-09T08:31:33.148Z,15.81
2023-04-09T08:33:59.887Z,15.42
2023-04-09T08:36:27.675Z,14.52
2023-04-09T08:38:55.957Z,14.55
2023-04-09T08:41:28.632Z,14.14
2023-04-09T08:43:58.753Z,14.02
2023-04-09T08:46:26.595Z,13.59
2023-04-09T08:48:53.596Z,13.70
2023-04-09T08:51:22.937Z,14.16
2023-04-09T08:53:55.395Z,14.47
2023-04-09T08:56:22.383Z,14.57
2023-04-09T08:58:49.780Z,14.53
2023-04-09T09:01:29.565Z,14.59
2023-04-09T09:04:01.748Z,14.33
2023-04-09T09:06:33.225Z,14.48
2023-04-09T09:09:04.667Z,14.07
2023-04-09T09:11:31.218Z,13.84
2023-04-09T09:14:02.621Z,15.17
2023-04-09T09:16:29.723Z,16.41
2023-04-09T09:18:57.165Z,16.66
2023-04-09T09:21:24.281Z,17.52
2023-04-09T09:23:51.034Z,18.04
2023-04-09T09:26:23.016Z,18.16
2023-04-09T09:28:49.949Z,17.92
2023-04-09T09:31:18.002Z,18.61
2023-04-09T09:33:45.227Z,17.75
2023-04-09T09:36:11.860Z,17.32
2023-04-09T09:38:58.458Z,17.13
2023-04-09T09:41:26.140Z,17.18
2023-04-09T09:43:52.608Z,17.10
2023-04-09T09:46:21.215Z,18.37
2023-04-09T09:48:47.962Z,18.35
2023-04-09T09:51:15.510Z,18.80
2023-04-09T09:53:49.557Z,18.18
2023-04-09T09:56:21.595Z,18.74
2023-04-09T09:59:11.044Z,18.35
2023-04-09T10:01:37.936Z,18.02
2023-04-09T10:04:07.408Z,19.07
2023-04-09T10:06:34.551Z,19.30
2023-04-09T10:09:05.631Z,19.11
2023-04-09T10:11:35.365Z,19.12
2023-04-09T10:14:02.624Z,19.84
2023-04-09T10:16:29.891Z,18.91
2023-04-09T10:18:58.099Z,19.52
2023-04-09T10:21:27.609Z,19.75
2023-04-09T10:23:55.047Z,19.34
2023-04-09T10:26:27.556Z,18.94
2023-04-09T10:29:08.679Z,17.96
2023-04-09T10:31:54.936Z,18.72
2023-04-09T10:34:27.991Z,19.38
2023-04-09T10:36:59.737Z,19.27
2023-04-09T10:39:33.680Z,20.29
2023-04-09T10:42:02.467Z,20.15
2023-04-09T10:44:31.908Z,18.20
2023-04-09T10:46:58.825Z,18.42
2023-04-09T10:49:27.347Z,19.05
2023-04-09T10:52:12.253Z,20.61
2023-04-09T10:54:44.105Z,20.57
2023-04-09T10:57:11.482Z,19.77
2023-04-09T10:59:41.250Z,20.06
2023-04-09T11:02:27.957Z,19.25
2023-04-09T11:05:23.951Z,20.50
2023-04-09T11:08:03.225Z,21.06
2023-04-09T11:10:29.863Z,20.33
2023-04-09T11:12:56.481Z,20.65
2023-04-09T11:15:23.174Z,20.91
2023-04-09T11:17:50.731Z,20.69
2023-04-09T11:20:22.772Z,19.67
2023-04-09T11:22:51.420Z,20.55
2023-04-09T11:25:20.388Z,21.24
2023-04-09T11:27:47.545Z,20.40
2023-04-09T11:30:14.008Z,20.99
2023-04-09T11:32:41.015Z,18.81
2023-04-09T11:35:18.725Z,18.28
2023-04-09T11:37:46.470Z,19.73
2023-04-09T11:40:24.544Z,19.38
2023-04-09T11:42:53.215Z,18.41
2023-04-09T11:45:22.263Z,18.18
2023-04-09T11:47:49.822Z,18.59
2023-04-09T11:50:16.678Z,20.22
2023-04-09T11:52:44.763Z,20.99
2023-04-09T11:55:12.103Z,20.77
2023-04-09T11:57:46.884Z,19.84
2023-04-09T12:00:15.528Z,19.86
2023-04-09T12:02:45.370Z,21.09
2023-04-09T12:05:22.730Z,19.35
2023-04-09T12:07:56.378Z,19.31
2023-04-09T12:10:30.340Z,20.70
2023-04-09T12:13:10.974Z,18.79
2023-04-09T12:15:41.929Z,19.58
2023-04-09T12:18:10.839Z,20.50
2023-04-09T12:20:39.722Z,19.65
2023-04-09T12:23:07.791Z,19.40
2023-04-09T12:25:36.913Z,19.47
2023-04-09T12:28:07.508Z,18.61
2023-04-09T12:30:35.403Z,19.06
2023-04-09T12:33:03.457Z,20.06
2023-04-09T12:35:30.052Z,20.15
2023-04-09T12:37:56.671Z,20.37
2023-04-09T12:40:23.179Z,19.93
2023-04-09T12:42:49.697Z,19.82
2023-04-09T12:45:20.947Z,20.81
2023-04-09T12:47:47.533Z,20.17
2023-04-09T12:50:16.121Z,19.65
2023-04-09T12:52:44.138Z,20.21
2023-04-09T12:55:11.961Z,20.35
2023-04-09T12:57:39.889Z,20.62
2023-04-09T13:00:07.845Z,20.67
2023-04-09T13:02:35.201Z,19.83
2023-04-09T13:05:02.175Z,19.92
2023-04-09T13:07:29.825Z,20.28
2023-04-09T13:09:57.166Z,20.26
2023-04-09T13:12:24.137Z,18.52
2023-04-09T13:14:55.236Z,18.54
2023-04-09T13:17:22.516Z,19.06
2023-04-09T13:19:50.284Z,19.68
2023-04-09T13:22:18.203Z,19.88
2023-04-09T13:24:44.807Z,19.75
2023-04-09T13:27:11.422Z,19.85
2023-04-09T13:29:38.246Z,19.84
2023-04-09T13:32:07.377Z,19.97
2023-04-09T13:34:35.158Z,19.65
2023-04-09T13:37:04.540Z,19.63
2023-04-09T13:39:31.304Z,19.48
2023-04-09T13:41:57.841Z,19.00
2023-04-09T13:44:27.812Z,18.33
2023-04-09T13:46:54.288Z,18.90
2023-04-09T13:49:21.115Z,18.66
2023-04-09T13:51:48.937Z,18.22
2023-04-09T13:54:15.595Z,18.26
2023-04-09T13:56:42.157Z,18.86
2023-04-09T13:59:08.650Z,18.60
2023-04-09T14:01:35.812Z,18.22
2023-04-09T14:04:02.916Z,18.08
2023-04-09T14:06:29.600Z,18.16
2023-04-09T14:08:56.929Z,18.69
2023-04-09T14:11:23.489Z,18.28
2023-04-09T14:13:50.019Z,18.34
2023-04-09T14:16:16.579Z,18.10
2023-04-09T14:18:43.037Z,18.39
2023-04-09T14:21:10.400Z,18.90
2023-04-09T14:23:37.511Z,19.01
2023-04-09T14:26:05.445Z,18.71
2023-04-09T14:28:35.213Z,18.36
2023-04-09T14:31:01.778Z,18.08
2023-04-09T14:33:28.298Z,18.46
2023-04-09T14:35:55.007Z,17.63
2023-04-09T14:38:21.821Z,17.72
2023-04-09T14:40:48.908Z,17.47
2023-04-09T14:43:15.474Z,17.31
2023-04-09T14:45:42.247Z,17.10
2023-04-09T14:48:09.179Z,16.79
2023-04-09T14:50:36.725Z,17.14
2023-04-09T14:53:06.665Z,16.67
2023-04-09T14:55:33.149Z,16.71
2023-04-09T14:58:01.555Z,16.67
2023-04-09T15:00:28.010Z,16.75
2023-04-09T15:02:54.782Z,16.41
2023-04-09T15:05:21.874Z,16.41
2023-04-09T15:07:48.657Z,16.73
2023-04-09T15:10:15.450Z,16.68
2023-04-09T15:12:42.025Z,16.89
2023-04-09T15:15:09.324Z,16.68
2023-04-09T15:17:36.556Z,16.63
2023-04-09T15:20:04.152Z,16.84
2023-04-09T15:22:30.622Z,16.70
2023-04-09T15:24:57.118Z,16.70
2023-04-09T15:27:23.657Z,15.92
2023-04-09T15:29:50.278Z,15.89
2023-04-09T15:32:16.720Z,15.68
2023-04-09T15:34:43.278Z,15.67
2023-04-09T15:37:09.752Z,15.93
2023-04-09T15:39:36.340Z,16.08
2023-04-09T15:42:02.977Z,16.10
2023-04-09T15:44:29.548Z,16.11
2023-04-09T15:46:56.237Z,16.32
2023-04-09T15:49:23.132Z,16.04
2023-04-09T15:51:49.889Z,16.04
2023-04-09T15:54:16.558Z,15.98
2023-04-09T15:56:43.177Z,16.00
2023-04-09T15:59:09.774Z,15.77
2023-04-09T16:01:36.653Z,15.72
2023-04-09T16:04:04.736Z,15.45
2023-04-09T16:06:31.856Z,15.39
2023-04-09T16:08:59.892Z,15.50
2023-04-09T16:11:26.594Z,15.63
2023-04-09T16:13:53.221Z,15.47
2023-04-09T16:16:22.329Z,15.30
2023-04-09T16:18:49.127Z,15.12
2023-04-09T16:21:15.651Z,15.13
2023-04-09T16:23:42.931Z,15.08
2023-04-09T16:26:10.557Z,15.35
2023-04-09T16:28:37.076Z,15.02
2023-04-09T16:31:03.659Z,15.08
2023-04-09T16:33:30.278Z,15.14
2023-04-09T16:35:56.903Z,15.10
2023-04-09T16:38:24.768Z,15.16
2023-04-09T16:40:51.298Z,15.10
2023-04-09T16:43:17.843Z,15.27
2023-04-09T16:45:44.958Z,15.15
2023-04-09T16:48:12.654Z,14.93
2023-04-09T16:50:40.393Z,15.04
2023-04-09T16:53:08.372Z,14.94
2023-04-09T16:55:35.163Z,14.85
2023-04-09T16:58:01.753Z,14.73
2023-04-09T17:00:28.317Z,14.92
2023-04-09T17:02:56.527Z,14.92
2023-04-09T17:05:23.672Z,14.72
2023-04-09T17:07:50.206Z,14.72
2023-04-09T17:10:16.729Z,14.62
2023-04-09T17:12:43.574Z,14.70
2023-04-09T17:15:10.768Z,14.68
2023-04-09T17:17:38.150Z,14.62
2023-04-09T17:20:05.274Z,14.70
2023-04-09T17:22:31.960Z,14.58
2023-04-09T17:24:58.445Z,14.51
2023-04-09T17:27:24.859Z,14.58
2023-04-09T17:29:51.763Z,14.51
2023-04-09T17:32:18.753Z,14.54
2023-04-09T17:34:49.632Z,14.44
2023-04-09T17:37:16.401Z,14.64
2023-04-09T17:39:42.997Z,14.45
2023-04-09T17:42:11.660Z,14.30
2023-04-09T17:44:38.575Z,14.12
2023-04-09T17:47:06.785Z,14.30
2023-04-09T17:49:33.398Z,14.29
2023-04-09T17:51:59.962Z,14.12
2023-04-09T17:54:26.502Z,14.06
2023-04-09T17:56:52.975Z,14.14
2023-04-09T17:59:19.516Z,13.93
2023-04-09T18:01:46.157Z,13.89
2023-04-09T18:04:13.048Z,13.88
2023-04-09T18:06:39.800Z,13.96
2023-04-09T18:09:06.337Z,13.86
2023-04-09T18:11:32.964Z,13.80
2023-04-09T18:13:59.415Z,13.72
2023-04-09T18:16:26.339Z,13.71
2023-04-09T18:18:53.029Z,13.74
2023-04-09T18:21:19.601Z,13.56
2023-04-09T18:23:46.466Z,13.59
2023-04-09T18:26:13.097Z,13.68
2023-04-09T18:28:39.588Z,13.52
2023-04-09T18:31:06.174Z,13.56
2023-04-09T18:33:32.845Z,13.53
2023-04-09T18:36:00.674Z,13.28
2023-04-09T18:38:28.906Z,13.34
2023-04-09T18:40:56.711Z,13.33
2023-04-09T18:43:24.522Z,13.26
2023-04-09T18:45:51.262Z,13.11
2023-04-09T18:48:18.232Z,13.12
2023-04-09T18:50:44.749Z,13.07
2023-04-09T18:53:11.571Z,13.10
2023-04-09T18:55:38.665Z,12.98
2023-04-09T18:58:12.440Z,12.97
2023-04-09T19:00:43.480Z,13.02
2023-04-09T19:03:10.280Z,13.01
2023-04-09T19:05:36.878Z,12.95
2023-04-09T19:08:06.883Z,12.97
2023-04-09T19:10:33.432Z,13.00
2023-04-09T19:12:59.948Z,12.94
2023-04-09T19:15:31.054Z,12.99
2023-04-09T19:17:57.684Z,12.94
2023-04-09T19:20:24.306Z,12.85
2023-04-09T19:22:54.406Z,12.77
2023-04-09T19:25:22.785Z,12.79
2023-04-09T19:27:49.502Z,12.76
2023-04-09T19:30:16.119Z,12.80
2023-04-09T19:32:45.540Z,12.74
2023-04-09T19:35:12.516Z,12.81
2023-04-09T19:37:39.756Z,12.77
2023-04-09T19:40:07.007Z,12.71
2023-04-09T19:42:33.811Z,12.70
2023-04-09T19:45:00.665Z,12.76
2023-04-09T19:47:27.935Z,12.74
2023-04-09T19:49:54.885Z,12.71
2023-04-09T19:52:21.529Z,12.73
2023-04-09T19:54:48.105Z,12.62
2023-04-09T19:57:15.445Z,12.62
2023-04-09T19:59:41.948Z,12.70
2023-04-09T20:02:08.568Z,12.64
2023-04-09T20:04:36.160Z,12.60
2023-04-09T20:07:04.104Z,12.57
2023-04-09T20:09:30.618Z,12.52
2023-04-09T20:11:59.871Z,12.43
2023-04-09T20:14:27.170Z,12.42
2023-04-09T20:16:53.673Z,12.44
2023-04-09T20:19:22.254Z,12.43
2023-04-09T20:21:49.168Z,12.39
2023-04-09T20:24:18.169Z,12.42
2023-04-09T20:26:45.152Z,12.31
2023-04-09T20:29:12.621Z,12.25
2023-04-09T20:31:39.259Z,12.26
2023-04-09T20:34:06.072Z,12.27
2023-04-09T20:36:32.531Z,12.21
2023-04-09T20:38:58.943Z,12.15
2023-04-09T20:41:25.577Z,12.19
2023-04-09T20:43:52.021Z,11.95
2023-04-09T20:46:18.595Z,11.92
2023-04-09T20:48:45.345Z,11.76
2023-04-09T20:51:11.901Z,11.90
2023-04-09T20:53:38.784Z,11.95
2023-04-09T20:56:07.149Z,11.90
2023-04-09T20:58:33.679Z,11.89
2023-04-09T21:01:09.212Z,11.87
2023-04-09T21:03:37.216Z,11.95
2023-04-09T21:06:04.108Z,11.82
2023-04-09T21:08:30.792Z,11.89
2023-04-09T21:10:57.464Z,11.93
2023-04-09T21:13:24.534Z,11.95
2023-04-09T21:15:51.276Z,11.88
2023-04-09T21:18:18.113Z,11.75
2023-04-09T21:20:48.394Z,11.71
2023-04-09T21:23:15.985Z,11.61
2023-04-09T21:25:42.638Z,11.60
2023-04-09T21:28:09.354Z,11.67
2023-04-09T21:30:37.718Z,11.70
2023-04-09T21:33:08.429Z,11.58
2023-04-09T21:35:36.450Z,11.63
2023-04-09T21:38:03.516Z,11.61
2023-04-09T21:40:30.839Z,11.58
2023-04-09T21:42:57.946Z,11.51
2023-04-09T21:45:24.701Z,11.51
2023-04-09T21:47:53.356Z,11.60
2023-04-09T21:50:19.983Z,11.51
2023-04-09T21:52:49.409Z,11.47
2023-04-09T21:55:15.949Z,11.57
2023-04-09T21:57:42.378Z,11.44
2023-04-09T22:00:10.965Z,11.40
2023-04-09T22:02:39.445Z,11.33
2023-04-09T22:05:06.501Z,11.37
2023-04-09T22:07:33.335Z,11.43
2023-04-09T22:09:59.800Z,11.38
2023-04-09T22:12:26.628Z,11.37
2023-04-09T22:14:53.062Z,11.41
2023-04-09T22:17:19.572Z,11.29
2023-04-09T22:19:47.176Z,11.21
2023-04-09T22:22:15.097Z,11.30
2023-04-09T22:24:43.052Z,11.16
2023-04-09T22:27:09.583Z,11.18
2023-04-09T22:29:37.156Z,11.26
2023-04-09T22:32:03.986Z,11.17
2023-04-09T22:34:30.681Z,11.22
2023-04-09T22:36:57.249Z,11.08
2023-04-09T22:39:25.347Z,11.12
2023-04-09T22:41:52.170Z,11.06
2023-04-09T22:44:18.731Z,11.08
2023-04-09T22:46:46.285Z,11.09
2023-04-09T22:49:12.926Z,10.93
2023-04-09T22:51:41.765Z,10.95
2023-04-09T22:54:08.941Z,11.03
2023-04-09T22:56:36.733Z,10.99
2023-04-09T22:59:04.983Z,10.90
2023-04-09T23:01:31.628Z,10.96
2023-04-09T23:03:58.216Z,10.91
2023-04-09T23:06:26.265Z,10.84
2023-04-09T23:08:53.059Z,10.82
2023-04-09T23:11:19.887Z,10.83
2023-04-09T23:13:46.416Z,10.70
2023-04-09T23:16:13.463Z,10.76
2023-04-09T23:18:40.340Z,10.83
2023-04-09T23:21:08.189Z,10.75
2023-04-09T23:23:35.574Z,10.63
2023-04-09T23:26:02.271Z,10.51
2023-04-09T23:28:29.399Z,10.52
2023-04-09T23:30:56.850Z,10.46
2023-04-09T23:33:23.382Z,10.49
2023-04-09T23:35:50.491Z,10.48
2023-04-09T23:38:17.079Z,10.41
2023-04-09T23:40:43.581Z,10.47
2023-04-09T23:43:10.113Z,10.35
2023-04-09T23:45:37.012Z,10.22
2023-04-09T23:48:05.074Z,10.24
2023-04-09T23:50:31.586Z,10.24
2023-04-09T23:53:01.268Z,10.18
2023-04-09T23:55:27.872Z,10.12
2023-04-09T23:57:54.415Z,10.08
